createdAt,value
2018-12-07T00:00:56.245Z,11.91
2018-12-07T00:01:56.239Z,12.00
2018-12-07T00:02:56.254Z,11.97
2018-12-07T00:03:56.357Z,11.88
2018-12-07T00:04:56.196Z,12.02
2018-12-07T00:05:56.195Z,11.99
2018-12-07T00:06:56.228Z,11.95
2018-12-07T00:07:56.226Z,11.95
2018-12-07T00:08:56.198Z,12.06
2018-12-07T00:09:56.149Z,12.00
2018-12-07T00:10:56.131Z,12.07
2018-12-07T00:11:56.125Z,12.09
2018-12-07T00:12:56.250Z,12.10
2018-12-07T00:13:56.108Z,12.09
2018-12-07T00:14:56.113Z,12.03
2018-12-07T00:15:56.117Z,12.03
2018-12-07T00:16:56.091Z,12.07
2018-12-07T00:17:56.126Z,12.15
2018-12-07T00:18:56.092Z,12.07
2018-12-07T00:19:56.093Z,12.07
2018-12-07T00:20:56.090Z,12.03
2018-12-07T00:21:56.029Z,12.06
2018-12-07T00:22:56.121Z,12.06
2018-12-07T00:23:55.991Z,12.10
2018-12-07T00:24:55.981Z,12.09
2018-12-07T00:25:55.972Z,12.10
2018-12-07T00:26:55.955Z,12.13
2018-12-07T00:27:56.067Z,12.13
2018-12-07T00:28:55.939Z,12.06
2018-12-07T00:29:55.924Z,12.03
2018-12-07T00:30:55.910Z,12.07
2018-12-07T00:31:55.900Z,12.04
2018-12-07T00:32:55.929Z,12.07
2018-12-07T00:33:55.884Z,12.07
2018-12-07T00:34:55.867Z,12.03
2018-12-07T00:35:55.862Z,12.03
2018-12-07T00:36:55.847Z,12.07
2018-12-07T00:37:55.858Z,12.06
2018-12-07T00:38:55.821Z,12.06
2018-12-07T00:39:55.838Z,12.10
2018-12-07T00:40:55.958Z,12.07
2018-12-07T00:41:55.795Z,12.15
2018-12-07T00:42:55.793Z,12.07
2018-12-07T00:43:55.811Z,12.07
2018-12-07T00:44:55.756Z,12.12
2018-12-07T00:45:55.791Z,12.10
2018-12-07T00:46:55.748Z,12.07
2018-12-07T00:47:55.733Z,12.17
2018-12-07T00:48:55.708Z,12.18
2018-12-07T00:49:55.701Z,12.17
2018-12-07T00:50:55.714Z,12.21
2018-12-07T00:51:55.725Z,12.15
2018-12-07T00:52:55.666Z,12.17
2018-12-07T00:53:55.665Z,12.12
2018-12-07T00:54:55.643Z,12.09
2018-12-07T00:55:55.635Z,12.18
2018-12-07T00:56:55.656Z,12.12
2018-12-07T00:57:55.644Z,12.04
2018-12-07T00:58:55.604Z,12.13
2018-12-07T00:59:55.664Z,12.18
2018-12-07T01:00:55.577Z,12.12
2018-12-07T01:01:55.649Z,12.20
2018-12-07T01:02:55.555Z,12.15
2018-12-07T01:03:55.546Z,12.13
2018-12-07T01:04:55.634Z,12.10
2018-12-07T01:05:55.525Z,12.10
2018-12-07T01:06:55.569Z,12.17
2018-12-07T01:07:55.526Z,12.00
2018-12-07T01:08:55.529Z,12.04
2018-12-07T01:09:55.488Z,12.03
2018-12-07T01:10:55.471Z,12.12
2018-12-07T01:11:55.457Z,12.06
2018-12-07T01:12:55.445Z,12.09
2018-12-07T01:13:55.481Z,11.94
2018-12-07T01:14:55.420Z,11.97
2018-12-07T01:15:55.410Z,11.99
2018-12-07T01:16:55.404Z,11.97
2018-12-07T01:17:55.387Z,11.95
2018-12-07T01:18:55.523Z,12.00
2018-12-07T01:19:55.391Z,11.95
2018-12-07T01:20:55.466Z,11.91
2018-12-07T01:21:55.346Z,11.95
2018-12-07T01:22:55.337Z,11.88
2018-12-07T01:23:55.379Z,11.81
2018-12-07T01:24:55.318Z,11.95
2018-12-07T01:25:55.332Z,11.88
2018-12-07T01:26:55.326Z,11.86
2018-12-07T01:27:55.281Z,11.90
2018-12-07T01:28:55.266Z,11.91
2018-12-07T01:29:55.285Z,11.95
2018-12-07T01:30:55.250Z,11.88
2018-12-07T01:31:55.259Z,11.88
2018-12-07T01:32:55.225Z,11.81
2018-12-07T01:33:55.214Z,11.90
2018-12-07T01:34:55.209Z,11.88
2018-12-07T01:35:55.195Z,11.86
2018-12-07T01:36:55.242Z,11.87
2018-12-07T01:37:55.171Z,11.81
2018-12-07T01:38:55.159Z,11.83
2018-12-07T01:39:55.188Z,11.80
2018-12-07T01:40:55.137Z,11.81
2018-12-07T01:41:55.179Z,11.87
2018-12-07T01:42:55.115Z,11.81
2018-12-07T01:43:55.202Z,11.80
2018-12-07T01:44:55.092Z,11.80
2018-12-07T01:45:55.086Z,11.78
2018-12-07T01:46:55.071Z,11.80
2018-12-07T01:47:55.061Z,11.87
2018-12-07T01:48:55.083Z,11.75
2018-12-07T01:49:55.037Z,11.81
2018-12-07T01:50:55.034Z,11.86
2018-12-07T01:51:55.017Z,11.84
2018-12-07T01:52:55.041Z,11.86
2018-12-07T01:53:54.992Z,11.86
2018-12-07T01:54:54.985Z,11.83
2018-12-07T01:55:55.032Z,11.90
2018-12-07T01:56:54.969Z,11.78
2018-12-07T01:57:54.977Z,11.86
2018-12-07T01:58:54.940Z,11.84
2018-12-07T01:59:54.927Z,11.87
2018-12-07T02:00:54.920Z,11.84
2018-12-07T02:01:54.905Z,11.87
2018-12-07T02:02:54.924Z,11.95
2018-12-07T02:03:54.914Z,11.91
2018-12-07T02:04:54.893Z,11.80
2018-12-07T02:05:54.862Z,11.90
2018-12-07T02:06:54.855Z,11.90
2018-12-07T02:07:54.839Z,11.95
2018-12-07T02:08:54.866Z,11.90
2018-12-07T02:09:54.819Z,11.95
2018-12-07T02:10:54.812Z,11.91
2018-12-07T02:11:54.811Z,11.94
2018-12-07T02:12:54.787Z,12.00
2018-12-07T02:13:54.811Z,11.95
2018-12-07T02:14:54.759Z,11.87
2018-12-07T02:15:54.784Z,11.87
2018-12-07T02:16:54.735Z,11.88
2018-12-07T02:17:54.728Z,11.87
2018-12-07T02:18:54.761Z,11.91
2018-12-07T02:19:54.737Z,11.91
2018-12-07T02:20:54.693Z,11.90
2018-12-07T02:21:54.687Z,11.90
2018-12-07T02:22:54.671Z,11.88
2018-12-07T02:23:54.703Z,11.86
2018-12-07T02:24:54.678Z,11.86
2018-12-07T02:25:54.644Z,11.87
2018-12-07T02:26:54.628Z,11.84
2018-12-07T02:27:54.673Z,11.81
2018-12-07T02:28:54.613Z,11.91
2018-12-07T02:29:54.593Z,11.90
2018-12-07T02:30:54.583Z,11.86
2018-12-07T02:31:54.608Z,11.90
2018-12-07T02:32:54.560Z,11.88
2018-12-07T02:33:54.559Z,11.81
2018-12-07T02:34:54.545Z,11.81
2018-12-07T02:35:54.578Z,11.80
2018-12-07T02:36:54.554Z,11.80
2018-12-07T02:37:54.541Z,11.87
2018-12-07T02:38:54.500Z,11.80
2018-12-07T02:39:54.484Z,11.91
2018-12-07T02:40:54.504Z,11.94
2018-12-07T02:41:54.489Z,11.84
2018-12-07T02:42:54.453Z,11.90
2018-12-07T02:43:54.441Z,11.83
2018-12-07T02:44:54.429Z,11.91
2018-12-07T02:45:54.424Z,11.87
2018-12-07T02:46:54.436Z,11.83
2018-12-07T02:47:54.416Z,11.86
2018-12-07T02:48:54.415Z,11.90
2018-12-07T02:49:54.388Z,11.84
2018-12-07T02:50:54.362Z,11.90
2018-12-07T02:51:54.394Z,11.81
2018-12-07T02:52:54.341Z,11.86
2018-12-07T02:53:54.335Z,11.86
2018-12-07T02:54:54.316Z,11.78
2018-12-07T02:55:54.306Z,11.90
2018-12-07T02:56:54.339Z,11.81
2018-12-07T02:57:54.287Z,11.83
2018-12-07T02:58:54.319Z,11.90
2018-12-07T02:59:54.330Z,11.87
2018-12-07T03:00:54.258Z,11.95
2018-12-07T03:01:54.282Z,11.91
2018-12-07T03:02:54.260Z,11.88
2018-12-07T03:03:54.219Z,11.86
2018-12-07T03:04:54.207Z,11.86
2018-12-07T03:05:54.200Z,11.90
2018-12-07T03:06:54.195Z,11.91
2018-12-07T03:07:54.222Z,11.95
2018-12-07T03:08:54.163Z,11.80
2018-12-07T03:09:54.153Z,11.91
2018-12-07T03:10:54.144Z,11.88
2018-12-07T03:11:54.133Z,11.80
2018-12-07T03:12:54.178Z,11.86
2018-12-07T03:13:54.142Z,11.87
2018-12-07T03:14:54.103Z,11.88
2018-12-07T03:15:54.100Z,11.97
2018-12-07T03:16:54.084Z,11.95
2018-12-07T03:17:54.131Z,11.90
2018-12-07T03:18:54.086Z,11.84
2018-12-07T03:19:54.043Z,11.84
2018-12-07T03:20:54.033Z,11.81
2018-12-07T03:21:54.022Z,11.88
2018-12-07T03:22:54.039Z,11.78
2018-12-07T03:23:53.999Z,11.83
2018-12-07T03:24:54.032Z,11.78
2018-12-07T03:25:53.981Z,11.77
2018-12-07T03:26:53.967Z,11.75
2018-12-07T03:27:53.960Z,11.73
2018-12-07T03:28:53.975Z,11.75
2018-12-07T03:29:53.936Z,11.75
2018-12-07T03:30:53.949Z,11.73
2018-12-07T03:31:54.030Z,11.78
2018-12-07T03:32:53.901Z,11.80
2018-12-07T03:33:53.925Z,11.78
2018-12-07T03:34:53.877Z,11.73
2018-12-07T03:35:53.919Z,11.75
2018-12-07T03:36:53.860Z,11.86
2018-12-07T03:37:53.850Z,11.86
2018-12-07T03:38:53.838Z,11.88
2018-12-07T03:39:53.831Z,11.80
2018-12-07T03:40:53.837Z,11.86
2018-12-07T03:41:53.847Z,11.84
2018-12-07T03:42:53.795Z,11.86
2018-12-07T03:43:53.785Z,11.94
2018-12-07T03:44:53.769Z,11.90
2018-12-07T03:45:53.755Z,11.86
2018-12-07T03:46:53.825Z,11.84
2018-12-07T03:47:53.739Z,11.87
2018-12-07T03:48:53.723Z,11.90
2018-12-07T03:49:53.709Z,11.94
2018-12-07T03:50:53.702Z,11.84
2018-12-07T03:51:53.722Z,11.90
2018-12-07T03:52:53.682Z,11.87
2018-12-07T03:53:53.666Z,11.84
2018-12-07T03:54:53.664Z,11.83
2018-12-07T03:55:53.713Z,11.84
2018-12-07T03:56:53.638Z,11.87
2018-12-07T03:57:53.663Z,11.90
2018-12-07T03:58:53.615Z,11.84
2018-12-07T03:59:53.610Z,11.97
2018-12-07T04:00:53.596Z,11.91
2018-12-07T04:01:53.611Z,11.94
2018-12-07T04:02:53.567Z,11.94
2018-12-07T04:03:53.593Z,12.00
2018-12-07T04:04:53.549Z,12.00
2018-12-07T04:05:53.555Z,12.02
2018-12-07T04:06:53.569Z,11.91
2018-12-07T04:07:53.524Z,11.99
2018-12-07T04:08:53.512Z,12.06
2018-12-07T04:09:53.498Z,11.94
2018-12-07T04:10:53.529Z,12.06
2018-12-07T04:11:53.539Z,12.06
2018-12-07T04:12:53.461Z,11.94
2018-12-07T04:13:53.462Z,12.04
2018-12-07T04:14:53.440Z,11.97
2018-12-07T04:15:53.464Z,11.97
2018-12-07T04:16:53.441Z,11.91
2018-12-07T04:17:53.411Z,11.94
2018-12-07T04:18:53.404Z,11.95
2018-12-07T04:19:53.386Z,11.99
2018-12-07T04:20:53.416Z,11.94
2018-12-07T04:21:53.375Z,11.94
2018-12-07T04:22:53.381Z,12.00
2018-12-07T04:23:53.343Z,11.99
2018-12-07T04:24:53.326Z,12.00
2018-12-07T04:25:53.318Z,11.97
2018-12-07T04:26:53.337Z,11.94
2018-12-07T04:27:53.321Z,11.94
2018-12-07T04:28:53.329Z,11.97
2018-12-07T04:29:53.316Z,11.97
2018-12-07T04:30:53.263Z,12.00
2018-12-07T04:31:53.248Z,11.90
2018-12-07T04:32:53.235Z,11.97
2018-12-07T04:33:53.276Z,11.95
2018-12-07T04:34:53.239Z,11.91
2018-12-07T04:35:53.234Z,11.95
2018-12-07T04:36:53.197Z,11.87
2018-12-07T04:37:53.214Z,11.86
2018-12-07T04:38:53.170Z,11.95
2018-12-07T04:39:53.159Z,11.94
2018-12-07T04:40:53.153Z,11.91
2018-12-07T04:41:53.148Z,11.91
2018-12-07T04:42:53.176Z,11.95
2018-12-07T04:43:53.120Z,11.87
2018-12-07T04:44:53.112Z,11.95
2018-12-07T04:45:53.118Z,11.94
2018-12-07T04:46:53.090Z,11.88
2018-12-07T04:47:53.145Z,11.94
2018-12-07T04:48:53.144Z,11.80
2018-12-07T04:49:53.083Z,11.91
2018-12-07T04:50:53.069Z,11.83
2018-12-07T04:51:53.033Z,11.88
2018-12-07T04:52:53.019Z,11.81
2018-12-07T04:53:53.023Z,11.81
2018-12-07T04:54:53.020Z,11.83
2018-12-07T04:55:52.991Z,11.81
2018-12-07T04:56:53.039Z,11.80
2018-12-07T04:57:52.989Z,11.77
2018-12-07T04:58:52.964Z,11.75
2018-12-07T04:59:52.973Z,11.75
2018-12-07T05:00:52.934Z,11.75
2018-12-07T05:01:52.928Z,11.80
2018-12-07T05:02:52.912Z,11.83
2018-12-07T05:03:52.912Z,11.75
2018-12-07T05:04:52.985Z,11.77
2018-12-07T05:05:52.873Z,11.83
2018-12-07T05:06:52.906Z,11.80
2018-12-07T05:07:52.850Z,11.80
2018-12-07T05:08:52.843Z,11.69
2018-12-07T05:09:52.862Z,11.68
2018-12-07T05:10:52.817Z,11.73
2018-12-07T05:11:52.810Z,11.72
2018-12-07T05:12:52.802Z,11.73
2018-12-07T05:13:52.846Z,11.70
2018-12-07T05:14:52.808Z,11.73
2018-12-07T05:15:52.770Z,11.72
2018-12-07T05:16:52.780Z,11.68
2018-12-07T05:17:52.748Z,11.72
2018-12-07T05:18:52.742Z,11.68
2018-12-07T05:19:52.732Z,11.72
2018-12-07T05:20:52.707Z,11.72
2018-12-07T05:21:52.726Z,11.70
2018-12-07T05:22:52.685Z,11.73
2018-12-07T05:23:52.679Z,11.69
2018-12-07T05:24:52.681Z,11.80
2018-12-07T05:25:52.690Z,11.70
2018-12-07T05:26:52.684Z,11.75
2018-12-07T05:27:52.631Z,11.66
2018-12-07T05:28:53.140Z,11.63
2018-12-07T05:29:52.613Z,11.73
2018-12-07T05:30:52.597Z,11.65
2018-12-07T05:31:52.620Z,11.62
2018-12-07T05:32:52.580Z,11.65
2018-12-07T05:33:52.568Z,11.66
2018-12-07T05:34:52.565Z,11.65
2018-12-07T05:35:57.736Z,11.69
2018-12-07T05:36:52.530Z,11.66
2018-12-07T05:37:52.523Z,11.66
2018-12-07T05:38:52.529Z,11.70
2018-12-07T05:39:52.537Z,11.63
2018-12-07T05:40:52.494Z,11.66
2018-12-07T05:41:52.494Z,11.66
2018-12-07T05:42:52.466Z,11.63
2018-12-07T05:43:52.454Z,11.66
2018-12-07T05:44:52.492Z,11.63
2018-12-07T05:45:52.435Z,11.60
2018-12-07T05:46:52.421Z,11.62
2018-12-07T05:47:52.412Z,11.62
2018-12-07T05:48:52.481Z,11.63
2018-12-07T05:49:52.476Z,11.60
2018-12-07T05:50:52.406Z,11.55
2018-12-07T05:51:52.411Z,11.72
2018-12-07T05:52:52.392Z,11.59
2018-12-07T05:53:52.345Z,11.52
2018-12-07T05:54:52.330Z,11.60
2018-12-07T05:55:52.380Z,11.62
2018-12-07T05:56:52.314Z,11.51
2018-12-07T05:57:52.295Z,11.51
2018-12-07T05:58:52.297Z,11.43
2018-12-07T05:59:52.326Z,11.52
2018-12-07T06:00:52.383Z,11.54
2018-12-07T06:01:52.297Z,11.47
2018-12-07T06:02:52.292Z,11.59
2018-12-07T06:03:52.244Z,11.54
2018-12-07T06:04:52.220Z,11.54
2018-12-07T06:05:52.209Z,11.52
2018-12-07T06:06:52.235Z,11.48
2018-12-07T06:07:52.214Z,11.59
2018-12-07T06:08:52.175Z,11.51
2018-12-07T06:09:52.169Z,11.50
2018-12-07T06:10:52.161Z,11.52
2018-12-07T06:11:52.146Z,11.48
2018-12-07T06:12:52.192Z,11.55
2018-12-07T06:13:52.127Z,11.57
2018-12-07T06:14:52.108Z,11.52
2018-12-07T06:15:52.101Z,11.51
2018-12-07T06:16:52.120Z,11.57
2018-12-07T06:17:52.110Z,11.55
2018-12-07T06:18:52.069Z,11.57
2018-12-07T06:19:52.060Z,11.65
2018-12-07T06:20:52.047Z,11.55
2018-12-07T06:21:52.035Z,11.52
2018-12-07T06:22:52.054Z,11.60
2018-12-07T06:23:52.008Z,11.52
2018-12-07T06:24:52.110Z,11.66
2018-12-07T06:25:51.992Z,11.57
2018-12-07T06:26:51.978Z,11.50
2018-12-07T06:27:52.026Z,11.52
2018-12-07T06:28:51.958Z,11.55
2018-12-07T06:29:51.946Z,11.52
2018-12-07T06:30:51.947Z,11.50
2018-12-07T06:31:51.925Z,11.55
2018-12-07T06:32:51.957Z,11.52
2018-12-07T06:33:51.903Z,11.63
2018-12-07T06:34:51.892Z,11.60
2018-12-07T06:35:51.896Z,11.52
2018-12-07T06:36:51.870Z,11.55
2018-12-07T06:37:51.882Z,11.55
2018-12-07T06:38:51.844Z,11.60
2018-12-07T06:39:52.398Z,11.54
2018-12-07T06:40:51.886Z,11.60
2018-12-07T06:41:51.814Z,11.62
2018-12-07T06:42:51.845Z,11.60
2018-12-07T06:43:51.798Z,11.55
2018-12-07T06:44:51.778Z,11.55
2018-12-07T06:45:51.769Z,11.60
2018-12-07T06:46:51.758Z,11.60
2018-12-07T06:47:51.783Z,11.59
2018-12-07T06:48:51.740Z,11.60
2018-12-07T06:49:51.728Z,11.60
2018-12-07T06:50:51.714Z,11.60
2018-12-07T06:51:51.703Z,11.62
2018-12-07T06:52:51.692Z,11.54
2018-12-07T06:53:51.712Z,11.62
2018-12-07T06:54:51.668Z,11.54
2018-12-07T06:55:51.662Z,11.63
2018-12-07T06:56:51.645Z,11.54
2018-12-07T06:57:51.639Z,11.55
2018-12-07T06:58:51.671Z,11.50
2018-12-07T06:59:51.618Z,11.54
2018-12-07T07:00:51.800Z,11.52
2018-12-07T07:01:51.589Z,11.57
2018-12-07T07:02:51.585Z,11.50
2018-12-07T07:03:51.746Z,11.57
2018-12-07T07:04:51.615Z,11.52
2018-12-07T07:05:51.548Z,11.47
2018-12-07T07:06:51.546Z,11.45
2018-12-07T07:07:51.540Z,11.47
2018-12-07T07:08:51.517Z,11.51
2018-12-07T07:09:51.549Z,11.45
2018-12-07T07:10:51.495Z,11.51
2018-12-07T07:11:51.481Z,11.50
2018-12-07T07:12:51.469Z,11.52
2018-12-07T07:13:51.459Z,11.45
2018-12-07T07:14:51.471Z,11.50
2018-12-07T07:15:51.438Z,11.44
2018-12-07T07:16:51.427Z,11.44
2018-12-07T07:17:51.489Z,11.45
2018-12-07T07:18:51.417Z,11.48
2018-12-07T07:19:51.468Z,11.47
2018-12-07T07:20:51.384Z,11.47
2018-12-07T07:21:51.370Z,11.48
2018-12-07T07:22:51.372Z,11.47
2018-12-07T07:23:51.351Z,11.47
2018-12-07T07:24:51.420Z,11.41
2018-12-07T07:25:51.335Z,11.48
2018-12-07T07:26:51.319Z,11.47
2018-12-07T07:27:51.309Z,11.50
2018-12-07T07:28:52.161Z,11.50
2018-12-07T07:29:51.288Z,11.47
2018-12-07T07:30:51.299Z,11.37
2018-12-07T07:31:51.259Z,11.48
2018-12-07T07:32:51.248Z,11.45
2018-12-07T07:33:51.239Z,11.48
2018-12-07T07:34:51.242Z,11.50
2018-12-07T07:35:51.246Z,11.47
2018-12-07T07:36:51.214Z,11.47
2018-12-07T07:37:51.193Z,11.44
2018-12-07T07:38:51.185Z,11.44
2018-12-07T07:39:51.217Z,11.52
2018-12-07T07:40:51.170Z,11.47
2018-12-07T07:41:51.180Z,11.51
2018-12-07T07:42:51.140Z,11.43
2018-12-07T07:43:51.149Z,11.44
2018-12-07T07:44:51.121Z,11.50
2018-12-07T07:45:51.111Z,11.44
2018-12-07T07:46:51.146Z,11.43
2018-12-07T07:47:51.084Z,11.43
2018-12-07T07:48:51.098Z,11.48
2018-12-07T07:49:51.098Z,11.54
2018-12-07T07:50:51.050Z,11.47
2018-12-07T07:51:51.082Z,11.48
2018-12-07T07:52:51.680Z,11.50
2018-12-07T07:53:51.017Z,11.47
2018-12-07T07:54:51.008Z,11.50
2018-12-07T07:55:51.004Z,11.45
2018-12-07T07:56:51.063Z,11.54
2018-12-07T07:57:50.970Z,11.47
2018-12-07T07:58:51.038Z,11.48
2018-12-07T07:59:50.952Z,11.48
2018-12-07T08:00:51.019Z,11.48
2018-12-07T08:01:50.967Z,11.48
2018-12-07T08:02:50.917Z,11.41
2018-12-07T08:03:50.913Z,11.50
2018-12-07T08:04:50.942Z,11.50
2018-12-07T08:05:50.889Z,11.54
2018-12-07T08:06:50.879Z,11.51
2018-12-07T08:07:50.891Z,11.47
2018-12-07T08:08:50.851Z,11.45
2018-12-07T08:09:50.843Z,11.50
2018-12-07T08:10:50.834Z,11.52
2018-12-07T08:11:50.817Z,11.47
2018-12-07T08:12:50.866Z,11.50
2018-12-07T08:13:50.812Z,11.41
2018-12-07T08:14:50.790Z,11.44
2018-12-07T08:15:50.774Z,11.44
2018-12-07T08:16:50.853Z,11.47
2018-12-07T08:17:50.755Z,11.45
2018-12-07T08:18:50.837Z,11.35
2018-12-07T08:19:50.734Z,11.35
2018-12-07T08:20:50.728Z,11.50
2018-12-07T08:21:50.710Z,11.47
2018-12-07T08:22:50.706Z,11.48
2018-12-07T08:23:50.714Z,11.47
2018-12-07T08:24:50.682Z,11.43
2018-12-07T08:25:50.664Z,11.44
2018-12-07T08:26:50.654Z,11.48
2018-12-07T08:27:50.659Z,11.47
2018-12-07T08:28:50.664Z,11.37
2018-12-07T08:29:50.624Z,11.44
2018-12-07T08:30:50.626Z,11.47
2018-12-07T08:31:50.604Z,11.43
2018-12-07T08:32:50.596Z,11.40
2018-12-07T08:33:50.599Z,11.45
2018-12-07T08:34:50.572Z,11.41
2018-12-07T08:35:50.579Z,11.48
2018-12-07T08:36:50.566Z,11.50
2018-12-07T08:37:50.544Z,11.52
2018-12-07T08:38:50.550Z,11.48
2018-12-07T08:39:50.512Z,11.45
2018-12-07T08:40:50.499Z,11.45
2018-12-07T08:41:50.497Z,11.50
2018-12-07T08:42:50.485Z,11.47
2018-12-07T08:43:50.500Z,11.48
2018-12-07T08:44:50.486Z,11.45
2018-12-07T08:45:50.445Z,11.45
2018-12-07T08:46:50.440Z,11.41
2018-12-07T08:47:50.442Z,11.47
2018-12-07T08:48:50.414Z,11.48
2018-12-07T08:49:50.446Z,11.50
2018-12-07T08:50:50.390Z,11.43
2018-12-07T08:51:50.395Z,11.44
2018-12-07T08:52:50.386Z,11.51
2018-12-07T08:53:50.359Z,11.52
2018-12-07T08:54:50.390Z,11.52
2018-12-07T08:55:50.410Z,11.60
2018-12-07T08:56:50.323Z,11.57
2018-12-07T08:57:50.311Z,11.60
2018-12-07T08:58:50.302Z,11.63
2018-12-07T08:59:50.299Z,11.55
2018-12-07T09:00:50.324Z,11.60
2018-12-07T09:01:50.270Z,11.72
2018-12-07T09:02:50.258Z,11.70
2018-12-07T09:03:50.247Z,11.62
2018-12-07T09:04:50.235Z,11.65
2018-12-07T09:05:50.259Z,11.66
2018-12-07T09:06:50.234Z,11.72
2018-12-07T09:07:50.208Z,11.68
2018-12-07T09:08:50.205Z,11.59
2018-12-07T09:09:50.185Z,11.73
2018-12-07T09:10:50.712Z,11.63
2018-12-07T09:11:50.193Z,11.60
2018-12-07T09:12:50.159Z,11.69
2018-12-07T09:13:50.135Z,11.68
2018-12-07T09:14:50.130Z,11.59
2018-12-07T09:15:50.188Z,11.69
2018-12-07T09:16:50.109Z,11.73
2018-12-07T09:17:50.136Z,11.70
2018-12-07T09:18:50.078Z,11.75
2018-12-07T09:19:50.075Z,11.75
2018-12-07T09:20:53.883Z,11.78
2018-12-07T09:21:50.050Z,11.83
2018-12-07T09:22:50.077Z,11.73
2018-12-07T09:23:50.030Z,11.75
2018-12-07T09:24:50.024Z,11.75
2018-12-07T09:25:50.071Z,11.77
2018-12-07T09:26:49.994Z,11.81
2018-12-07T09:27:49.985Z,11.84
2018-12-07T09:28:50.016Z,11.87
2018-12-07T09:29:50.007Z,11.81
2018-12-07T09:30:49.951Z,11.80
2018-12-07T09:31:49.946Z,11.81
2018-12-07T09:32:49.925Z,11.88
2018-12-07T09:33:49.972Z,11.81
2018-12-07T09:34:49.909Z,11.81
2018-12-07T09:35:49.901Z,11.88
2018-12-07T09:36:49.891Z,11.90
2018-12-07T09:37:49.880Z,11.95
2018-12-07T09:38:50.071Z,11.91
2018-12-07T09:39:50.254Z,11.86
2018-12-07T09:40:49.952Z,11.90
2018-12-07T09:41:49.916Z,11.81
2018-12-07T09:42:49.820Z,11.86
2018-12-07T09:43:49.837Z,11.91
2018-12-07T09:44:49.803Z,11.88
2018-12-07T09:45:49.787Z,11.90
2018-12-07T09:46:49.774Z,11.91
2018-12-07T09:47:49.763Z,11.94
2018-12-07T09:48:49.750Z,11.97
2018-12-07T09:49:49.771Z,11.95
2018-12-07T09:50:49.751Z,11.94
2018-12-07T09:51:49.723Z,11.94
2018-12-07T09:52:49.718Z,11.97
2018-12-07T09:53:49.727Z,11.97
2018-12-07T09:54:49.688Z,11.95
2018-12-07T09:55:49.719Z,11.99
2018-12-07T09:56:49.667Z,12.02
2018-12-07T09:57:49.650Z,11.94
2018-12-07T09:58:49.644Z,11.99
2018-12-07T09:59:49.661Z,12.04
2018-12-07T10:00:49.615Z,12.10
2018-12-07T10:01:49.605Z,12.12
2018-12-07T10:02:49.602Z,12.06
2018-12-07T10:03:49.579Z,12.04
2018-12-07T10:04:49.602Z,12.09
2018-12-07T10:05:49.570Z,12.12
2018-12-07T10:06:49.555Z,12.13
2018-12-07T10:07:49.543Z,12.15
2018-12-07T10:08:49.526Z,12.18
2018-12-07T10:09:49.517Z,12.18
2018-12-07T10:10:49.538Z,12.13
2018-12-07T10:11:49.584Z,12.15
2018-12-07T10:12:49.486Z,12.15
2018-12-07T10:13:49.479Z,12.20
2018-12-07T10:14:49.465Z,12.06
2018-12-07T10:15:49.461Z,12.15
2018-12-07T10:16:49.473Z,12.06
2018-12-07T10:17:49.435Z,12.17
2018-12-07T10:18:49.430Z,12.10
2018-12-07T10:19:49.425Z,12.24
2018-12-07T10:20:49.392Z,12.12
2018-12-07T10:21:49.428Z,12.09
2018-12-07T10:22:49.407Z,12.13
2018-12-07T10:23:49.376Z,12.12
2018-12-07T10:24:49.359Z,12.13
2018-12-07T10:25:49.339Z,12.04
2018-12-07T10:26:49.377Z,12.12
2018-12-07T10:27:49.342Z,12.04
2018-12-07T10:28:49.310Z,12.15
2018-12-07T10:29:49.301Z,12.12
2018-12-07T10:30:49.308Z,12.20
2018-12-07T10:31:49.329Z,12.24
2018-12-07T10:32:49.261Z,12.18
2018-12-07T10:33:49.257Z,12.25
2018-12-07T10:34:49.250Z,12.22
2018-12-07T10:35:49.259Z,12.22
2018-12-07T10:36:49.349Z,12.27
2018-12-07T10:37:49.212Z,12.22
2018-12-07T10:38:49.209Z,12.17
2018-12-07T10:39:49.186Z,12.24
2018-12-07T10:40:49.240Z,12.25
2018-12-07T10:41:49.172Z,12.29
2018-12-07T10:42:49.182Z,12.25
2018-12-07T10:43:49.140Z,12.22
2018-12-07T10:44:49.134Z,12.25
2018-12-07T10:45:49.120Z,12.24
2018-12-07T10:46:49.116Z,12.32
2018-12-07T10:47:50.456Z,12.28
2018-12-07T10:48:49.086Z,12.29
2018-12-07T10:49:49.077Z,12.28
2018-12-07T10:50:49.063Z,12.29
2018-12-07T10:51:49.057Z,12.25
2018-12-07T10:52:49.045Z,12.25
2018-12-07T10:53:49.060Z,12.28
2018-12-07T10:54:49.082Z,12.29
2018-12-07T10:55:49.012Z,12.22
2018-12-07T10:56:49.003Z,12.35
2018-12-07T10:57:48.996Z,12.32
2018-12-07T10:58:48.982Z,12.32
2018-12-07T10:59:49.005Z,12.39
2018-12-07T11:00:48.951Z,12.46
2018-12-07T11:01:48.943Z,12.42
2018-12-07T11:02:48.932Z,12.39
2018-12-07T11:03:48.925Z,12.43
2018-12-07T11:04:48.951Z,12.47
2018-12-07T11:05:48.899Z,12.55
2018-12-07T11:06:48.886Z,12.55
2018-12-07T11:07:48.874Z,12.64
2018-12-07T11:08:48.870Z,12.62
2018-12-07T11:09:48.850Z,12.65
2018-12-07T11:10:48.878Z,12.73
2018-12-07T11:11:48.834Z,12.61
2018-12-07T11:12:48.821Z,12.68
2018-12-07T11:13:48.806Z,12.68
2018-12-07T11:14:48.798Z,12.68
2018-12-07T11:15:48.923Z,12.72
2018-12-07T11:16:48.799Z,12.67
2018-12-07T11:17:48.770Z,12.67
2018-12-07T11:18:48.778Z,12.67
2018-12-07T11:19:48.750Z,12.61
2018-12-07T11:20:48.726Z,12.55
2018-12-07T11:21:48.764Z,12.54
2018-12-07T11:22:48.710Z,12.68
2018-12-07T11:23:48.704Z,12.58
2018-12-07T11:24:48.713Z,12.60
2018-12-07T11:25:48.673Z,12.53
2018-12-07T11:26:48.664Z,12.54
2018-12-07T11:27:48.683Z,12.47
2018-12-07T11:28:48.641Z,12.54
2018-12-07T11:29:48.629Z,12.62
2018-12-07T11:30:48.619Z,12.68
2018-12-07T11:31:48.618Z,12.65
2018-12-07T11:32:48.596Z,12.68
2018-12-07T11:33:48.621Z,12.68
2018-12-07T11:34:48.609Z,12.64
2018-12-07T11:35:48.559Z,12.65
2018-12-07T11:36:48.551Z,12.73
2018-12-07T11:37:48.544Z,12.72
2018-12-07T11:38:48.527Z,12.73
2018-12-07T11:39:48.584Z,12.75
2018-12-07T11:40:48.503Z,12.67
2018-12-07T11:41:48.497Z,12.67
2018-12-07T11:42:48.483Z,12.67
2018-12-07T11:43:48.471Z,12.73
2018-12-07T11:44:48.495Z,12.73
2018-12-07T11:45:48.460Z,12.65
2018-12-07T11:46:48.465Z,12.65
2018-12-07T11:47:48.433Z,12.61
2018-12-07T11:48:48.420Z,12.68
2018-12-07T11:49:48.431Z,12.65
2018-12-07T11:50:48.430Z,12.68
2018-12-07T11:51:48.385Z,12.79
2018-12-07T11:52:48.372Z,12.68
2018-12-07T11:53:48.362Z,12.68
2018-12-07T11:54:48.407Z,12.72
2018-12-07T11:55:48.447Z,12.78
2018-12-07T11:56:48.324Z,12.79
2018-12-07T11:57:48.325Z,12.82
2018-12-07T11:58:48.311Z,12.80
2018-12-07T11:59:48.321Z,12.82
2018-12-07T12:00:48.290Z,12.75
2018-12-07T12:01:48.271Z,12.73
2018-12-07T12:02:48.265Z,12.90
2018-12-07T12:03:48.250Z,12.94
2018-12-07T12:04:48.243Z,13.05
2018-12-07T12:05:48.261Z,13.00
2018-12-07T12:06:48.221Z,13.00
2018-12-07T12:07:48.231Z,12.98
2018-12-07T12:08:48.196Z,13.00
2018-12-07T12:09:48.187Z,13.00
2018-12-07T12:10:48.212Z,12.98
2018-12-07T12:11:48.161Z,12.97
2018-12-07T12:12:48.152Z,13.00
2018-12-07T12:13:48.138Z,13.00
2018-12-07T12:14:48.127Z,12.97
2018-12-07T12:15:48.129Z,12.94
2018-12-07T12:16:48.175Z,13.00
2018-12-07T12:17:48.105Z,13.00
2018-12-07T12:18:48.084Z,13.01
2018-12-07T12:19:48.077Z,12.98
2018-12-07T12:20:48.064Z,13.00
2018-12-07T12:21:48.083Z,12.98
2018-12-07T12:22:48.045Z,13.00
2018-12-07T12:23:53.610Z,13.03
2018-12-07T12:24:49.044Z,13.04
2018-12-07T12:25:48.009Z,13.04
2018-12-07T12:26:48.061Z,13.08
2018-12-07T12:27:47.987Z,13.13
2018-12-07T12:28:47.978Z,13.12
2018-12-07T12:29:47.966Z,13.13
2018-12-07T12:30:47.996Z,13.19
2018-12-07T12:31:47.944Z,13.13
2018-12-07T12:32:47.963Z,13.19
2018-12-07T12:33:47.921Z,13.09
2018-12-07T12:34:47.920Z,13.20
2018-12-07T12:35:47.899Z,13.16
2018-12-07T12:36:47.911Z,13.18
2018-12-07T12:37:47.901Z,13.22
2018-12-07T12:38:47.867Z,13.22
2018-12-07T12:39:47.858Z,13.31
2018-12-07T12:40:47.844Z,13.30
2018-12-07T12:41:47.854Z,13.20
2018-12-07T12:42:47.856Z,13.25
2018-12-07T12:43:47.810Z,13.31
2018-12-07T12:44:47.802Z,13.30
2018-12-07T12:45:47.796Z,13.28
2018-12-07T12:46:47.778Z,13.25
2018-12-07T12:47:47.805Z,13.20
2018-12-07T12:48:47.768Z,13.22
2018-12-07T12:49:47.756Z,13.18
2018-12-07T12:50:47.742Z,13.23
2018-12-07T12:51:47.848Z,13.22
2018-12-07T12:52:47.712Z,13.25